Terminal Aerodrome Forecast
Issued by NWS

Home | Current Version | Previous Version | Text Only | Print | Product List | Glossary On
Versions: 1 2 3 4 5 6 7 8 9 10 11 12
519
FTUS44 KEPZ 220540
TAFDMN
TAF
KDMN 220540Z 2206/2306 35009KT P6SM SKC
     FM220800 04010KT P6SM SKC
     FM221600 10006KT P6SM SKC
     FM230200 VRB04KT P6SM SKC=

USA.gov is the U.S. government's official web portal to all federal, state and local government web resources and services.